Country
Station

 

Weather  for  Semnan  -  Iran    Iran

  
26 °C (79 °F)
    
 
 

Current METAR for Semnan is :

OIIS 161300Z 00000KT CAVOK 26/M01 Q1020

 

This is a report for Semnan - Iran.
 
The report was made 9 minutes ago, at 13:00 UTC .
The wind was calm.
 
The temperature was 26 °C (79 °F), with a dew-point at -1 °C (30 °F).
The temperature felt like 26 °C (78 °F).
 
The atmospheric pressure was 1020 hPa (30.12 inHg).
The relative humidity was 16.9%.
 
There were no clouds below 1500 meter (5000 feet) and no cumulonimbus clouds.
 
The overall visibility was greater than 10 kilometers (6.2 miles).
 

 
 
 
 

Country :   A   B   C   D   E   F   G   H   I   J   K   L   M   N   O   P   Q   R   S   T   U   V   W   Y   Z

 

Site Info  |  Disclaimer  |  Credits  |  Privacy
Contact us  |  Add to favorites
© 2013-2019 METARs - All rights reserved